createdAt,value
2018-06-16T00:00:10.908Z,19.30
2018-06-16T00:02:37.867Z,19.80
2018-06-16T00:05:04.829Z,16.30
2018-06-16T00:07:31.816Z,13.40
2018-06-16T00:09:58.781Z,19.40
2018-06-16T00:12:25.722Z,13.30
2018-06-16T00:14:52.658Z,17.40
2018-06-16T00:17:19.607Z,15.50
2018-06-16T00:19:46.545Z,16.70
2018-06-16T00:22:13.517Z,16.23
2018-06-16T00:24:40.474Z,15.63
2018-06-16T00:27:07.406Z,14.80
2018-06-16T00:29:34.368Z,14.57
2018-06-16T00:32:01.340Z,16.33
2018-06-16T00:34:28.301Z,12.67
2018-06-16T00:36:55.352Z,17.90
2018-06-16T00:39:22.287Z,13.70
2018-06-16T00:41:49.200Z,14.93
2018-06-16T00:44:16.160Z,16.23
2018-06-16T00:46:43.083Z,16.00
2018-06-16T00:49:10.215Z,15.10
2018-06-16T00:51:37.154Z,14.80
2018-06-16T00:54:04.162Z,18.80
2018-06-16T00:56:31.108Z,16.17
2018-06-16T00:58:58.037Z,14.23
2018-06-16T01:01:24.983Z,16.60
2018-06-16T01:03:52.064Z,15.00
2018-06-16T01:06:19.024Z,13.13
2018-06-16T01:08:45.972Z,18.30
2018-06-16T01:11:12.893Z,15.57
2018-06-16T01:13:39.881Z,15.83
2018-06-16T01:16:06.894Z,17.23
2018-06-16T01:18:33.896Z,16.37
2018-06-16T01:21:00.821Z,16.87
2018-06-16T01:23:27.751Z,18.50
2018-06-16T01:25:54.789Z,16.00
2018-06-16T01:28:21.735Z,16.03
2018-06-16T01:30:48.656Z,14.40
2018-06-16T01:33:15.593Z,21.40
2018-06-16T01:35:42.527Z,22.77
2018-06-16T01:38:09.452Z,15.97
2018-06-16T01:40:36.420Z,18.40
2018-06-16T01:43:03.405Z,19.80
2018-06-16T01:45:30.377Z,20.23
2018-06-16T01:47:57.316Z,18.20
2018-06-16T01:50:24.274Z,24.23
2018-06-16T01:52:51.934Z,18.53
2018-06-16T01:55:18.919Z,21.07
2018-06-16T01:57:45.859Z,17.67
2018-06-16T02:00:12.803Z,17.80
2018-06-16T02:02:39.749Z,18.97
2018-06-16T02:05:06.690Z,20.70
2018-06-16T02:07:33.631Z,17.83
2018-06-16T02:10:00.572Z,23.93
2018-06-16T02:12:27.519Z,20.23
2018-06-16T02:14:54.469Z,23.93
2018-06-16T02:17:21.431Z,20.37
2018-06-16T02:19:48.373Z,17.27
2018-06-16T02:22:15.308Z,22.20
2018-06-16T02:24:42.246Z,20.53
2018-06-16T02:27:09.230Z,22.87
2018-06-16T02:29:36.244Z,20.00
2018-06-16T02:32:03.190Z,18.37
2018-06-16T02:34:30.132Z,20.27
2018-06-16T02:36:57.124Z,22.60
2018-06-16T02:39:24.098Z,18.63
2018-06-16T02:41:51.047Z,19.50
2018-06-16T02:44:18.021Z,17.17
2018-06-16T02:46:44.960Z,19.30
2018-06-16T02:49:11.974Z,17.77
2018-06-16T02:51:39.009Z,20.37
2018-06-16T02:54:05.936Z,22.37
2018-06-16T02:56:32.882Z,27.00
2018-06-16T02:58:59.842Z,19.90
2018-06-16T03:01:26.811Z,19.73
2018-06-16T03:03:53.831Z,19.23
2018-06-16T03:06:20.785Z,17.70
2018-06-16T03:08:47.753Z,22.80
2018-06-16T03:11:14.677Z,17.10
2018-06-16T03:13:41.603Z,18.20
2018-06-16T03:16:08.533Z,19.50
2018-06-16T03:18:35.431Z,16.30
2018-06-16T03:21:02.383Z,21.33
2018-06-16T03:23:29.447Z,21.20
2018-06-16T03:25:56.380Z,17.93
2018-06-16T03:28:23.336Z,14.90
2018-06-16T03:30:50.318Z,16.77
2018-06-16T03:33:17.294Z,17.50
2018-06-16T03:35:44.249Z,19.20
2018-06-16T03:38:11.202Z,17.23
2018-06-16T03:40:38.150Z,20.60
2018-06-16T03:43:05.087Z,16.43
2018-06-16T03:45:32.076Z,20.33
2018-06-16T03:47:59.086Z,18.47
2018-06-16T03:50:25.991Z,23.07
2018-06-16T03:52:53.201Z,20.70
2018-06-16T03:55:20.112Z,19.47
2018-06-16T03:57:47.057Z,23.93
2018-06-16T04:00:15.370Z,24.07
2018-06-16T04:02:42.293Z,23.30
2018-06-16T04:05:09.259Z,14.90
2018-06-16T04:07:36.193Z,21.47
2018-06-16T04:10:03.134Z,15.63
2018-06-16T04:12:30.093Z,18.27
2018-06-16T04:14:57.014Z,26.03
2018-06-16T04:17:23.950Z,18.10
2018-06-16T04:19:51.861Z,15.87
2018-06-16T04:22:19.103Z,16.73
2018-06-16T04:24:46.040Z,19.83
2018-06-16T04:27:12.957Z,18.13
2018-06-16T04:29:40.083Z,18.30
2018-06-16T04:32:07.047Z,17.77
2018-06-16T04:34:34.342Z,19.17
2018-06-16T04:37:01.513Z,17.40
2018-06-16T04:39:28.495Z,20.73
2018-06-16T04:41:55.469Z,24.43
2018-06-16T04:44:22.434Z,22.37
2018-06-16T04:46:49.350Z,18.47
2018-06-16T04:49:16.340Z,19.83
2018-06-16T04:51:43.254Z,19.93
2018-06-16T04:54:10.182Z,16.23
2018-06-16T04:56:37.159Z,17.60
2018-06-16T04:59:04.122Z,17.80
2018-06-16T05:01:31.063Z,22.30
2018-06-16T05:03:57.979Z,17.37
2018-06-16T05:06:25.000Z,17.37
2018-06-16T05:08:51.936Z,19.20
2018-06-16T05:11:18.911Z,18.30
2018-06-16T05:13:45.856Z,17.00
2018-06-16T05:16:12.827Z,19.53
2018-06-16T05:18:39.762Z,19.30
2018-06-16T05:21:06.725Z,19.53
2018-06-16T05:23:33.869Z,18.50
2018-06-16T05:26:00.816Z,23.87
2018-06-16T05:28:27.731Z,18.07
2018-06-16T05:30:54.680Z,17.57
2018-06-16T05:33:21.636Z,23.67
2018-06-16T05:35:48.563Z,24.93
2018-06-16T05:38:15.510Z,19.87
2018-06-16T05:40:42.436Z,19.40
2018-06-16T05:43:09.412Z,24.40
2018-06-16T05:45:36.372Z,23.10
2018-06-16T05:48:03.298Z,20.00
2018-06-16T05:50:30.264Z,18.93
2018-06-16T05:52:57.299Z,20.20
2018-06-16T05:55:24.242Z,20.33
2018-06-16T05:57:51.198Z,19.63
2018-06-16T06:00:18.145Z,21.50
2018-06-16T06:02:45.077Z,22.57
2018-06-16T06:05:12.038Z,23.03
2018-06-16T06:07:39.127Z,20.47
2018-06-16T06:10:06.084Z,21.13
2018-06-16T06:12:33.028Z,19.83
2018-06-16T06:14:59.991Z,19.90
2018-06-16T06:17:26.904Z,18.00
2018-06-16T06:19:53.836Z,19.90
2018-06-16T06:22:20.794Z,18.00
2018-06-16T06:24:47.777Z,18.90
2018-06-16T06:27:15.016Z,18.40
2018-06-16T06:29:42.021Z,19.10
2018-06-16T06:32:08.984Z,17.83
2018-06-16T06:34:35.911Z,18.73
2018-06-16T06:37:02.835Z,18.73
2018-06-16T06:39:29.769Z,17.90
2018-06-16T06:41:56.752Z,21.33
2018-06-16T06:44:23.695Z,22.97
2018-06-16T06:46:50.663Z,19.20
2018-06-16T06:49:17.585Z,18.80
2018-06-16T06:51:45.402Z,21.20
2018-06-16T06:54:12.327Z,25.93
2018-06-16T06:56:39.299Z,19.03
2018-06-16T06:59:06.343Z,18.53
2018-06-16T07:01:33.262Z,18.20
2018-06-16T07:04:00.223Z,17.90
2018-06-16T07:06:27.165Z,16.37
2018-06-16T07:08:54.109Z,16.40
2018-06-16T07:11:21.088Z,23.43
2018-06-16T07:13:48.046Z,17.87
2018-06-16T07:16:15.026Z,19.50
2018-06-16T07:18:41.971Z,18.07
2018-06-16T07:21:08.951Z,20.97
2018-06-16T07:23:35.992Z,16.00
2018-06-16T07:26:02.902Z,16.43
2018-06-16T07:28:29.850Z,17.60
2018-06-16T07:30:56.806Z,17.10
2018-06-16T07:33:23.748Z,15.73
2018-06-16T07:35:50.726Z,15.97
2018-06-16T07:38:17.653Z,18.00
2018-06-16T07:40:44.598Z,14.57
2018-06-16T07:43:11.637Z,14.83
2018-06-16T07:45:38.556Z,18.00
2018-06-16T07:48:05.947Z,16.33
2018-06-16T07:50:32.906Z,16.53
2018-06-16T07:52:59.843Z,25.73
2018-06-16T07:55:26.843Z,15.50
2018-06-16T07:57:53.786Z,16.30
2018-06-16T08:00:20.728Z,17.37
2018-06-16T08:02:48.002Z,12.27
2018-06-16T08:05:14.978Z,13.27
2018-06-16T08:07:42.028Z,16.33
2018-06-16T08:10:09.107Z,11.13
2018-06-16T08:12:36.155Z,12.70
2018-06-16T08:15:03.302Z,12.80
2018-06-16T08:17:30.472Z,11.90
2018-06-16T08:19:57.564Z,9.97
2018-06-16T08:22:24.610Z,11.73
2018-06-16T08:24:51.704Z,12.93
2018-06-16T08:27:18.773Z,9.90
2018-06-16T08:29:45.874Z,11.27
2018-06-16T08:32:12.944Z,10.77
2018-06-16T08:34:40.053Z,10.00
2018-06-16T08:37:07.098Z,12.03
2018-06-16T08:39:34.162Z,10.33
2018-06-16T08:42:01.179Z,12.13
2018-06-16T08:44:28.705Z,11.87
2018-06-16T08:46:55.772Z,13.13
2018-06-16T08:49:22.810Z,8.63
2018-06-16T08:51:49.850Z,10.53
2018-06-16T08:54:16.896Z,13.23
2018-06-16T08:56:43.925Z,9.17
2018-06-16T08:59:10.944Z,8.90
2018-06-16T09:01:37.995Z,9.67
2018-06-16T09:04:05.103Z,9.20
2018-06-16T09:06:32.122Z,9.70
2018-06-16T09:08:59.153Z,10.00
2018-06-16T09:11:26.204Z,9.67
2018-06-16T09:13:53.234Z,9.33
2018-06-16T09:16:20.280Z,9.73
2018-06-16T09:18:47.294Z,10.60
2018-06-16T09:21:14.330Z,10.00
2018-06-16T09:23:41.378Z,9.20
2018-06-16T09:26:08.380Z,10.60
2018-06-16T09:28:35.409Z,10.70
2018-06-16T09:31:02.430Z,7.63
2018-06-16T09:33:29.479Z,6.80
2018-06-16T09:35:56.514Z,10.80
2018-06-16T09:38:23.571Z,7.13
2018-06-16T09:40:50.633Z,11.33
2018-06-16T09:43:17.678Z,5.33
2018-06-16T09:45:44.730Z,6.40
2018-06-16T09:48:11.843Z,8.50
2018-06-16T09:50:38.819Z,7.03
2018-06-16T09:53:05.908Z,5.70
2018-06-16T09:55:33.002Z,5.50
2018-06-16T09:58:00.015Z,5.23
2018-06-16T10:00:33.027Z,5.47
2018-06-16T10:03:00.069Z,5.53
2018-06-16T10:05:27.143Z,5.40
2018-06-16T10:07:54.188Z,7.37
2018-06-16T10:10:21.230Z,5.70
2018-06-16T10:12:48.262Z,5.70
2018-06-16T10:15:15.303Z,5.10
2018-06-16T10:17:42.340Z,5.50
2018-06-16T10:20:09.368Z,6.13
2018-06-16T10:22:36.409Z,6.30
2018-06-16T10:25:03.447Z,8.83
2018-06-16T10:27:30.504Z,5.33
2018-06-16T10:29:57.558Z,7.53
2018-06-16T10:32:24.586Z,4.80
2018-06-16T10:34:51.753Z,5.90
2018-06-16T10:37:18.805Z,13.33
2018-06-16T10:39:45.832Z,6.10
2018-06-16T10:42:12.928Z,4.70
2018-06-16T10:44:40.006Z,12.60
2018-06-16T10:47:07.871Z,6.90
2018-06-16T10:49:35.021Z,4.40
2018-06-16T10:52:02.125Z,6.10
2018-06-16T10:54:29.438Z,10.00
2018-06-16T10:56:57.157Z,10.40
2018-06-16T10:59:24.236Z,4.73
2018-06-16T11:01:51.352Z,4.27
2018-06-16T11:04:18.450Z,5.50
2018-06-16T11:06:45.552Z,7.03
2018-06-16T11:09:12.721Z,4.23
2018-06-16T11:11:39.796Z,12.00
2018-06-16T11:14:07.293Z,4.60
2018-06-16T11:16:34.335Z,5.30
2018-06-16T11:19:01.436Z,8.17
2018-06-16T11:21:28.446Z,3.30
2018-06-16T11:23:55.504Z,3.37
2018-06-16T11:26:22.559Z,3.60
2018-06-16T11:28:49.670Z,2.53
2018-06-16T11:31:16.844Z,3.80
2018-06-16T11:33:43.897Z,3.97
2018-06-16T11:36:10.951Z,6.37
2018-06-16T11:38:38.018Z,4.40
2018-06-16T11:41:05.085Z,4.50
2018-06-16T11:43:32.159Z,5.33
2018-06-16T11:45:59.187Z,5.30
2018-06-16T11:48:26.221Z,5.67
2018-06-16T11:50:53.282Z,5.63
2018-06-16T11:53:20.317Z,6.07
2018-06-16T11:55:47.481Z,6.47
2018-06-16T11:58:14.603Z,5.60
2018-06-16T12:00:41.614Z,7.90
2018-06-16T12:03:08.699Z,5.47
2018-06-16T12:05:35.713Z,5.13
2018-06-16T12:08:02.770Z,7.77
2018-06-16T12:10:29.843Z,7.40
2018-06-16T12:12:56.886Z,6.27
2018-06-16T12:15:23.920Z,8.40
2018-06-16T12:17:50.965Z,6.57
2018-06-16T12:20:18.041Z,6.70
2018-06-16T12:22:45.087Z,8.30
2018-06-16T12:25:12.131Z,6.97
2018-06-16T12:27:39.167Z,7.67
2018-06-16T12:30:06.283Z,8.90
2018-06-16T12:32:33.381Z,10.87
2018-06-16T12:35:00.578Z,8.80
2018-06-16T12:37:27.619Z,9.50
2018-06-16T12:39:54.679Z,9.63
2018-06-16T12:42:22.015Z,10.73
2018-06-16T12:44:49.027Z,12.30
2018-06-16T12:47:16.076Z,12.07
2018-06-16T12:49:43.118Z,9.80
2018-06-16T12:52:10.181Z,10.50
2018-06-16T12:54:37.321Z,11.13
2018-06-16T12:57:04.369Z,11.40
2018-06-16T12:59:31.458Z,9.43
2018-06-16T13:01:58.924Z,10.57
2018-06-16T13:04:25.978Z,11.90
2018-06-16T13:06:53.040Z,9.63
2018-06-16T13:09:20.067Z,10.43
2018-06-16T13:11:47.120Z,11.20
2018-06-16T13:14:14.164Z,9.43
2018-06-16T13:16:41.235Z,14.10
2018-06-16T13:19:08.272Z,11.70
2018-06-16T13:21:35.320Z,11.23
2018-06-16T13:24:02.395Z,10.17
2018-06-16T13:26:29.434Z,9.70
2018-06-16T13:28:56.498Z,11.93
2018-06-16T13:31:24.114Z,9.00
2018-06-16T13:33:51.171Z,9.73
2018-06-16T13:36:18.388Z,15.30
2018-06-16T13:38:45.450Z,9.23
2018-06-16T13:41:12.511Z,10.97
2018-06-16T13:43:39.596Z,9.23
2018-06-16T13:46:06.655Z,10.03
2018-06-16T13:48:33.690Z,10.00
2018-06-16T13:51:00.727Z,9.33
2018-06-16T13:53:27.927Z,8.90
2018-06-16T13:55:55.025Z,9.20
2018-06-16T13:58:22.058Z,8.43
2018-06-16T14:00:49.100Z,11.03
2018-06-16T14:03:16.118Z,8.37
2018-06-16T14:05:43.162Z,10.73
2018-06-16T14:08:10.206Z,8.03
2018-06-16T14:10:37.456Z,8.07
2018-06-16T14:13:05.494Z,8.03
2018-06-16T14:15:32.530Z,8.17
2018-06-16T14:17:59.551Z,17.67
2018-06-16T14:20:26.684Z,12.90
2018-06-16T14:22:53.709Z,8.60
2018-06-16T14:25:20.746Z,7.80
2018-06-16T14:27:47.810Z,8.37
2018-06-16T14:30:14.830Z,6.23
2018-06-16T14:32:41.874Z,7.70
2018-06-16T14:35:08.947Z,10.67
2018-06-16T14:37:36.014Z,10.40
2018-06-16T14:40:03.045Z,8.10
2018-06-16T14:42:30.089Z,8.93
2018-06-16T14:44:57.124Z,8.63
2018-06-16T14:47:24.143Z,9.13
2018-06-16T14:49:51.218Z,12.87
2018-06-16T14:52:18.285Z,8.40
2018-06-16T14:54:45.402Z,8.13
2018-06-16T14:57:12.469Z,15.30
2018-06-16T14:59:39.577Z,11.20
2018-06-16T15:02:06.575Z,10.07
2018-06-16T15:04:33.640Z,11.13
2018-06-16T15:07:00.665Z,15.70
2018-06-16T15:09:27.988Z,13.97
2018-06-16T15:11:54.994Z,12.00
2018-06-16T15:14:22.018Z,13.60
2018-06-16T15:16:49.049Z,12.17
2018-06-16T15:19:16.075Z,13.10
2018-06-16T15:21:43.116Z,12.00
2018-06-16T15:24:10.199Z,12.43
2018-06-16T15:26:37.296Z,10.07
2018-06-16T15:29:04.366Z,7.83
2018-06-16T15:31:31.392Z,8.90
2018-06-16T15:33:58.524Z,8.20
2018-06-16T15:36:25.557Z,7.53
2018-06-16T15:38:52.608Z,10.67
2018-06-16T15:41:19.674Z,8.10
2018-06-16T15:43:47.390Z,9.10
2018-06-16T15:46:14.505Z,9.03
2018-06-16T15:48:42.058Z,18.23
2018-06-16T15:51:09.120Z,14.13
2018-06-16T15:53:36.158Z,7.77
2018-06-16T15:56:03.204Z,8.43
2018-06-16T15:58:30.247Z,9.90
2018-06-16T16:00:57.262Z,9.37
2018-06-16T16:03:24.319Z,10.87
2018-06-16T16:05:51.452Z,12.60
2018-06-16T16:08:18.470Z,10.97
2018-06-16T16:10:45.552Z,9.10
2018-06-16T16:13:12.559Z,9.73
2018-06-16T16:15:39.597Z,10.30
2018-06-16T16:18:07.288Z,9.83
2018-06-16T16:20:35.057Z,9.33
2018-06-16T16:23:02.715Z,13.17
2018-06-16T16:25:30.466Z,10.17
2018-06-16T16:27:58.244Z,10.60
2018-06-16T16:30:25.356Z,13.23
2018-06-16T16:32:52.417Z,11.40
2018-06-16T16:35:20.790Z,10.43
2018-06-16T16:37:48.537Z,13.50
2018-06-16T16:40:15.654Z,9.70
2018-06-16T16:42:43.292Z,10.33
2018-06-16T16:45:10.606Z,10.07
2018-06-16T16:47:37.683Z,16.87
2018-06-16T16:50:04.746Z,12.97
2018-06-16T16:52:31.820Z,20.27
2018-06-16T16:54:58.834Z,11.57
2018-06-16T16:57:25.845Z,11.23
2018-06-16T16:59:52.870Z,11.70
2018-06-16T17:02:19.920Z,13.40
2018-06-16T17:04:47.096Z,9.63
2018-06-16T17:07:15.274Z,9.53
2018-06-16T17:09:43.885Z,11.47
2018-06-16T17:12:11.346Z,11.30
2018-06-16T17:14:39.155Z,15.23
2018-06-16T17:17:06.213Z,11.77
2018-06-16T17:19:33.506Z,12.30
2018-06-16T17:22:00.627Z,16.63
2018-06-16T17:24:27.658Z,11.80
2018-06-16T17:26:54.701Z,18.10
2018-06-16T17:29:21.755Z,24.33
2018-06-16T17:31:48.805Z,14.63
2018-06-16T17:34:15.850Z,19.13
2018-06-16T17:36:42.824Z,10.30
2018-06-16T17:39:10.418Z,11.20
2018-06-16T17:41:37.349Z,14.13
2018-06-16T17:44:04.332Z,14.80
2018-06-16T17:46:31.299Z,16.87
2018-06-16T17:48:58.404Z,14.20
2018-06-16T17:51:25.389Z,15.13
2018-06-16T17:53:52.530Z,15.03
2018-06-16T17:56:19.520Z,14.30
2018-06-16T17:58:46.592Z,18.30
2018-06-16T18:01:13.684Z,19.00
2018-06-16T18:03:40.913Z,14.70
2018-06-16T18:06:07.902Z,15.40
2018-06-16T18:08:34.895Z,15.03
2018-06-16T18:11:01.886Z,18.77
2018-06-16T18:13:28.934Z,13.40
2018-06-16T18:15:55.927Z,15.20
2018-06-16T18:18:22.914Z,16.20
2018-06-16T18:20:50.151Z,22.27
2018-06-16T18:23:17.087Z,18.80
2018-06-16T18:25:44.027Z,17.50
2018-06-16T18:28:10.986Z,19.77
2018-06-16T18:30:37.919Z,14.13
2018-06-16T18:33:05.018Z,14.17
2018-06-16T18:35:31.984Z,29.77
2018-06-16T18:37:58.946Z,19.63
2018-06-16T18:40:25.892Z,13.60
2018-06-16T18:42:52.886Z,15.37
2018-06-16T18:45:19.848Z,18.20
2018-06-16T18:47:46.913Z,18.23
2018-06-16T18:50:13.897Z,19.10
2018-06-16T18:52:40.895Z,14.30
2018-06-16T18:55:07.898Z,17.80
2018-06-16T18:57:34.828Z,15.97
2018-06-16T19:00:01.854Z,16.33
2018-06-16T19:02:29.070Z,16.77
2018-06-16T19:04:56.249Z,23.13
2018-06-16T19:07:23.234Z,14.77
2018-06-16T19:09:50.192Z,18.70
2018-06-16T19:12:17.167Z,19.77
2018-06-16T19:14:44.787Z,18.70
2018-06-16T19:17:11.718Z,22.07
2018-06-16T19:19:38.723Z,21.03
2018-06-16T19:22:05.669Z,19.43
2018-06-16T19:24:32.601Z,16.30
2018-06-16T19:26:59.561Z,18.37
2018-06-16T19:29:26.556Z,18.77
2018-06-16T19:31:53.538Z,19.87
2018-06-16T19:34:20.475Z,16.23
2018-06-16T19:36:47.398Z,19.90
2018-06-16T19:39:14.339Z,23.83
2018-06-16T19:41:41.367Z,20.43
2018-06-16T19:44:09.027Z,17.80
2018-06-16T19:46:36.056Z,19.40
2018-06-16T19:49:02.999Z,17.30
2018-06-16T19:51:29.928Z,14.83
2018-06-16T19:53:56.891Z,17.83
2018-06-16T19:56:23.880Z,19.13
2018-06-16T19:58:50.964Z,19.93
2018-06-16T20:01:17.899Z,21.20
2018-06-16T20:03:44.836Z,15.00
2018-06-16T20:06:11.802Z,20.97
2018-06-16T20:08:38.793Z,18.30
2018-06-16T20:11:05.907Z,21.70
2018-06-16T20:13:32.876Z,18.33
2018-06-16T20:15:59.970Z,19.40
2018-06-16T20:18:26.888Z,16.43
2018-06-16T20:20:53.877Z,14.77
2018-06-16T20:23:20.844Z,24.43
2018-06-16T20:25:47.800Z,20.03
2018-06-16T20:28:14.806Z,17.67
2018-06-16T20:30:41.737Z,23.23
2018-06-16T20:33:08.709Z,20.07
2018-06-16T20:35:35.666Z,18.57
2018-06-16T20:38:02.616Z,16.60
2018-06-16T20:40:29.579Z,18.40
2018-06-16T20:42:56.556Z,18.73
2018-06-16T20:45:23.498Z,16.00
2018-06-16T20:47:50.482Z,18.10
2018-06-16T20:50:17.417Z,17.17
2018-06-16T20:52:44.506Z,20.93
2018-06-16T20:55:12.470Z,17.60
2018-06-16T20:57:39.393Z,16.90
2018-06-16T21:00:06.876Z,15.07
2018-06-16T21:02:34.019Z,15.67
2018-06-16T21:05:00.955Z,15.80
2018-06-16T21:07:27.903Z,14.83
2018-06-16T21:09:54.943Z,16.23
2018-06-16T21:12:21.954Z,16.10
2018-06-16T21:14:48.886Z,14.67
2018-06-16T21:17:15.864Z,17.57
2018-06-16T21:19:42.815Z,28.97
2018-06-16T21:22:09.898Z,17.37
2018-06-16T21:24:36.882Z,16.60
2018-06-16T21:27:03.829Z,18.90
2018-06-16T21:29:30.804Z,24.20
2018-06-16T21:31:57.796Z,27.10
2018-06-16T21:34:24.911Z,27.97
2018-06-16T21:36:51.868Z,20.93
2018-06-16T21:39:18.841Z,22.70
2018-06-16T21:41:45.819Z,23.87
2018-06-16T21:44:12.839Z,22.33
2018-06-16T21:46:39.915Z,20.70
2018-06-16T21:49:06.885Z,19.07
2018-06-16T21:51:33.863Z,26.43
2018-06-16T21:54:00.835Z,22.03
2018-06-16T21:56:27.837Z,18.63
2018-06-16T21:58:54.789Z,18.70
2018-06-16T22:01:22.327Z,20.17
2018-06-16T22:03:50.177Z,20.63
2018-06-16T22:06:17.404Z,22.70
2018-06-16T22:08:44.377Z,23.63
2018-06-16T22:11:11.355Z,21.07
2018-06-16T22:13:38.272Z,22.97
2018-06-16T22:16:05.269Z,19.57
2018-06-16T22:18:32.380Z,19.57
2018-06-16T22:20:59.321Z,24.13
2018-06-16T22:23:26.274Z,35.90
2018-06-16T22:25:54.123Z,27.47
2018-06-16T22:28:21.175Z,27.97
2018-06-16T22:30:48.524Z,24.07
2018-06-16T22:33:15.477Z,27.70
2018-06-16T22:35:42.428Z,21.43
2018-06-16T22:38:09.514Z,25.17
2018-06-16T22:40:36.472Z,34.13
2018-06-16T22:43:03.485Z,18.30
2018-06-16T22:45:30.400Z,21.60
2018-06-16T22:47:58.362Z,23.03
2018-06-16T22:50:25.599Z,19.90
2018-06-16T22:52:52.797Z,22.07
2018-06-16T22:55:19.726Z,23.37
2018-06-16T22:57:46.638Z,20.80
2018-06-16T23:00:21.588Z,17.73
2018-06-16T23:02:48.838Z,19.30
2018-06-16T23:05:15.796Z,20.97
2018-06-16T23:07:42.734Z,18.47
2018-06-16T23:10:09.676Z,22.33
2018-06-16T23:12:36.607Z,17.57
2018-06-16T23:15:03.549Z,24.00
2018-06-16T23:17:30.622Z,21.10
2018-06-16T23:19:57.573Z,18.10
2018-06-16T23:22:24.514Z,24.23
2018-06-16T23:24:51.750Z,19.63
2018-06-16T23:27:18.682Z,21.90
2018-06-16T23:29:45.597Z,20.17
2018-06-16T23:32:12.508Z,19.60
2018-06-16T23:34:39.495Z,28.00
2018-06-16T23:37:06.536Z,25.60
2018-06-16T23:39:33.484Z,22.97
2018-06-16T23:42:00.442Z,18.77
2018-06-16T23:44:27.733Z,19.60
2018-06-16T23:46:54.883Z,22.10
2018-06-16T23:49:21.811Z,24.10
2018-06-16T23:51:48.730Z,21.23
2018-06-16T23:54:15.914Z,21.93
2018-06-16T23:56:42.943Z,22.83
2018-06-16T23:59:09.944Z,21.90
